Portada
METAR-TAF:

METAR-TAF

Aeropuertos :

Aeropuerto Internacional de Wellington

Wellington, Nueva Zelanda

latitud: 41-20S, longitud: 174-48E, altitud: 12 m

Observación

El informe se hizo hace 12 minutos, a las 02:30 UTC
Viento 14 kt del sur
Temperatura 17°C
Humedad 63%
Presión 1022 hPa
Visibilidad 10 km o más

METAR: NZWN 230230Z AUTO 17014KT 9999 SCT029/// 17/10 Q1022 NOSIG

Hora: 15:42 (02:42 UTC)

Pronóstico

El informe se hizo hace 3 horas y 40 minutos, a las 23:02 UTC
Pronóstico válido del 23 a las 00 UTC al 24 a las 00 UTC
Viento 15 kt del sur
Visibilidad 10 km o más
Escasas nubes a una altura de 3000 ft
Nubes dispersas a una altura de 4000 ft
Evolucionando progresivamente
del 23 a las 12 UTC al 23 a las 14 UTC
Viento 5 kt del sur-sureste

TAF: NZWN 222302Z 2300/2400 17015KT 9999 FEW030 SCT040 BECMG 2312/2314 16005KT

Observaciones y pronósticos meteorológicos de más de 4000 aeropuertos (mensajes METAR y TAF).

Los puntos amarillos y rojos representan las estaciones disponibles.

Ponga el ratón en el punto deseado para ver el nombre de la estación.

Haga clic para ver las observaciones y los pronósticos meteorológicos.

Para cambiar el mapa : haga clic en los botones verdes con una cruz de color negro para hacer un zoom, en el botón verde con un guión para alejar o en las flechas verdes para mapas adyacentes.


METAR-TAF: